createdAt,value
2023-09-02T00:01:01.102Z,9.70
2023-09-02T00:03:28.820Z,10.07
2023-09-02T00:05:56.468Z,10.17
2023-09-02T00:08:23.814Z,10.03
2023-09-02T00:10:51.450Z,9.40
2023-09-02T00:13:19.059Z,10.13
2023-09-02T00:15:46.605Z,9.23
2023-09-02T00:18:14.377Z,9.70
2023-09-02T00:20:41.720Z,9.30
2023-09-02T00:23:08.973Z,9.83
2023-09-02T00:25:36.624Z,10.33
2023-09-02T00:28:04.149Z,9.33
2023-09-02T00:30:31.503Z,10.10
2023-09-02T00:32:59.216Z,9.73
2023-09-02T00:35:26.657Z,9.50
2023-09-02T00:37:54.451Z,10.17
2023-09-02T00:40:23.773Z,9.25
2023-09-02T00:45:23.261Z,10.07
2023-09-02T00:47:51.977Z,10.00
2023-09-02T00:50:19.339Z,10.00
2023-09-02T00:52:48.260Z,9.43
2023-09-02T00:55:16.717Z,9.50
2023-09-02T00:57:45.522Z,10.48
2023-09-02T01:00:14.686Z,10.60
2023-09-02T01:02:43.875Z,10.27
2023-09-02T01:05:11.431Z,10.23
2023-09-02T01:07:40.464Z,9.87
2023-09-02T01:10:09.279Z,9.47
2023-09-02T01:12:36.782Z,10.87
2023-09-02T01:15:04.840Z,9.60
2023-09-02T01:17:33.608Z,10.40
2023-09-02T01:20:04.785Z,10.50
2023-09-02T01:22:43.138Z,10.07
2023-09-02T01:25:19.930Z,9.95
2023-09-02T01:28:01.202Z,10.17
2023-09-02T01:30:34.389Z,9.77
2023-09-02T01:33:04.720Z,9.77
2023-09-02T01:35:35.905Z,10.43
2023-09-02T01:38:05.325Z,10.07
2023-09-02T01:40:34.482Z,9.87
2023-09-02T01:43:03.812Z,10.13
2023-09-02T01:45:35.421Z,9.93
2023-09-02T01:48:04.747Z,10.90
2023-09-02T01:50:34.178Z,11.03
2023-09-02T01:53:02.727Z,10.40
2023-09-02T01:55:30.608Z,10.27
2023-09-02T01:57:59.358Z,10.40
2023-09-02T02:00:26.865Z,10.57
2023-09-02T02:02:55.969Z,10.87
2023-09-02T02:05:38.942Z,10.37
2023-09-02T02:08:13.300Z,9.67
2023-09-02T02:10:43.127Z,10.50
2023-09-02T02:13:10.805Z,9.43
2023-09-02T02:15:38.124Z,10.20
2023-09-02T02:18:05.958Z,10.27
2023-09-02T02:20:44.039Z,10.05
2023-09-02T02:23:11.939Z,10.53
2023-09-02T02:25:39.601Z,9.75
2023-09-02T02:28:07.800Z,10.30
2023-09-02T02:30:35.066Z,12.05
2023-09-02T02:33:02.837Z,11.90
2023-09-02T02:35:33.520Z,10.53
2023-09-02T02:38:01.135Z,10.00
2023-09-02T02:40:29.030Z,10.07
2023-09-02T02:42:56.309Z,10.63
2023-09-02T02:45:23.762Z,10.60
2023-09-02T02:47:51.507Z,11.13
2023-09-02T02:50:18.858Z,10.73
2023-09-02T02:52:46.467Z,10.67
2023-09-02T02:55:14.309Z,10.37
2023-09-02T02:57:41.806Z,10.73
2023-09-02T03:00:10.393Z,10.40
2023-09-02T03:02:38.349Z,9.85
2023-09-02T03:05:06.222Z,9.93
2023-09-02T03:07:34.621Z,9.73
2023-09-02T03:10:02.437Z,10.47
2023-09-02T03:12:30.682Z,9.95
2023-09-02T03:14:58.485Z,9.93
2023-09-02T03:17:26.270Z,10.63
2023-09-02T03:19:53.800Z,11.10
2023-09-02T03:22:21.302Z,10.73
2023-09-02T03:24:55.729Z,10.65
2023-09-02T03:27:23.986Z,10.70
2023-09-02T03:29:52.865Z,10.48
2023-09-02T03:32:20.274Z,10.40
2023-09-02T03:34:47.807Z,11.33
2023-09-02T03:37:15.488Z,10.27
2023-09-02T03:39:42.974Z,10.30
2023-09-02T03:42:11.362Z,10.18
2023-09-02T03:44:39.062Z,10.60
2023-09-02T03:47:06.566Z,10.73
2023-09-02T03:49:33.983Z,10.80
2023-09-02T03:52:02.306Z,9.77
2023-09-02T03:54:29.858Z,11.00
2023-09-02T03:56:57.378Z,10.87
2023-09-02T03:59:25.391Z,11.00
2023-09-02T04:01:52.765Z,10.47
2023-09-02T04:04:20.758Z,11.17
2023-09-02T04:06:48.157Z,10.63
2023-09-02T04:09:16.320Z,10.97
2023-09-02T04:11:44.769Z,10.70
2023-09-02T04:14:12.061Z,10.73
2023-09-02T04:16:39.952Z,10.47
2023-09-02T04:19:07.782Z,10.65
2023-09-02T04:21:35.189Z,11.80
2023-09-02T04:24:02.696Z,10.50
2023-09-02T04:26:30.443Z,10.80
2023-09-02T04:28:57.975Z,10.83
2023-09-02T04:31:25.641Z,10.43
2023-09-02T04:33:53.730Z,10.47
2023-09-02T04:36:21.293Z,10.33
2023-09-02T04:38:48.649Z,11.03
2023-09-02T04:41:17.610Z,11.10
2023-09-02T04:46:13.179Z,10.87
2023-09-02T04:48:43.415Z,11.20
2023-09-02T04:51:11.821Z,10.37
2023-09-02T04:53:39.390Z,10.55
2023-09-02T04:56:07.421Z,11.87
2023-09-02T04:58:35.168Z,11.17
2023-09-02T05:01:13.888Z,11.15
2023-09-02T05:03:41.869Z,11.52
2023-09-02T05:06:11.994Z,11.00
2023-09-02T05:08:40.030Z,10.73
2023-09-02T05:11:08.621Z,10.57
2023-09-02T05:13:36.293Z,10.48
2023-09-02T05:16:04.176Z,11.43
2023-09-02T05:18:31.876Z,10.63
2023-09-02T05:20:59.706Z,11.60
2023-09-02T05:23:27.088Z,10.80
2023-09-02T05:25:56.531Z,11.03
2023-09-02T05:28:25.092Z,11.27
2023-09-02T05:30:52.742Z,10.63
2023-09-02T05:33:20.935Z,11.23
2023-09-02T05:35:48.601Z,10.63
2023-09-02T05:38:15.946Z,11.57
2023-09-02T05:40:43.857Z,11.20
2023-09-02T05:43:11.215Z,11.40
2023-09-02T05:45:38.643Z,10.50
2023-09-02T05:48:07.086Z,11.53
2023-09-02T05:50:34.530Z,11.65
2023-09-02T05:53:02.048Z,9.40
2023-09-02T05:55:29.743Z,9.97
2023-09-02T05:57:57.103Z,10.57
2023-09-02T06:00:24.499Z,10.33
2023-09-02T06:02:52.436Z,9.38
2023-09-02T06:05:19.841Z,10.15
2023-09-02T06:07:47.174Z,9.35
2023-09-02T06:10:14.919Z,9.77
2023-09-02T06:12:42.348Z,9.65
2023-09-02T06:15:10.266Z,9.52
2023-09-02T06:17:37.948Z,9.82
2023-09-02T06:20:05.967Z,9.38
2023-09-02T06:22:33.426Z,9.80
2023-09-02T06:25:01.440Z,9.80
2023-09-02T06:27:29.804Z,9.73
2023-09-02T06:29:57.102Z,9.30
2023-09-02T06:32:25.651Z,9.32
2023-09-02T06:34:56.202Z,9.98
2023-09-02T06:37:23.584Z,9.65
2023-09-02T06:39:56.995Z,9.18
2023-09-02T06:42:24.717Z,9.00
2023-09-02T06:44:55.740Z,9.65
2023-09-02T06:47:23.285Z,9.57
2023-09-02T06:49:50.962Z,10.07
2023-09-02T06:52:18.854Z,9.85
2023-09-02T06:54:50.148Z,9.63
2023-09-02T06:57:17.772Z,8.55
2023-09-02T06:59:45.481Z,8.55
2023-09-02T07:02:12.816Z,8.95
2023-09-02T07:04:40.300Z,8.20
2023-09-02T07:07:08.039Z,7.97
2023-09-02T07:09:36.192Z,8.18
2023-09-02T07:12:03.745Z,7.93
2023-09-02T07:14:31.351Z,7.40
2023-09-02T07:16:58.846Z,7.95
2023-09-02T07:19:26.265Z,8.75
2023-09-02T07:21:53.917Z,6.40
2023-09-02T07:24:21.210Z,6.68
2023-09-02T07:26:48.617Z,6.90
2023-09-02T07:29:16.959Z,6.40
2023-09-02T07:31:44.465Z,5.70
2023-09-02T07:34:12.268Z,5.97
2023-09-02T07:36:40.259Z,6.18
2023-09-02T07:39:07.654Z,5.37
2023-09-02T07:41:35.027Z,5.82
2023-09-02T07:44:02.693Z,5.97
2023-09-02T07:46:30.007Z,4.85
2023-09-02T07:48:57.277Z,4.72
2023-09-02T07:51:25.026Z,4.57
2023-09-02T07:53:52.448Z,4.80
2023-09-02T07:56:19.838Z,5.03
2023-09-02T07:58:49.745Z,5.20
2023-09-02T08:01:17.111Z,4.28
2023-09-02T08:03:44.852Z,4.70
2023-09-02T08:06:12.341Z,4.60
2023-09-02T08:08:39.761Z,5.53
2023-09-02T08:11:07.767Z,5.47
2023-09-02T08:13:35.462Z,4.33
2023-09-02T08:16:08.778Z,4.53
2023-09-02T08:18:36.833Z,4.62
2023-09-02T08:21:11.154Z,4.87
2023-09-02T08:23:40.368Z,4.72
2023-09-02T08:26:13.673Z,4.57
2023-09-02T08:28:45.858Z,4.87
2023-09-02T08:31:19.507Z,4.10
2023-09-02T08:33:47.406Z,4.75
2023-09-02T08:36:18.566Z,4.20
2023-09-02T08:38:46.314Z,5.12
2023-09-02T08:41:23.725Z,4.28
2023-09-02T08:43:56.767Z,5.20
2023-09-02T08:46:28.404Z,4.30
2023-09-02T08:49:00.060Z,4.80
2023-09-02T08:51:28.754Z,4.80
2023-09-02T08:53:57.865Z,4.25
2023-09-02T08:56:25.615Z,5.07
2023-09-02T08:58:56.706Z,4.37
2023-09-02T09:01:25.200Z,4.05
2023-09-02T09:03:57.586Z,4.15
2023-09-02T09:06:26.379Z,4.78
2023-09-02T09:08:56.236Z,3.92
2023-09-02T09:11:26.223Z,4.68
2023-09-02T09:13:56.245Z,4.28
2023-09-02T09:16:35.676Z,4.32
2023-09-02T09:19:04.379Z,4.40
2023-09-02T09:21:32.054Z,4.40
2023-09-02T09:23:59.422Z,4.37
2023-09-02T09:26:27.713Z,4.07
2023-09-02T09:28:57.706Z,4.20
2023-09-02T09:31:26.939Z,4.10
2023-09-02T09:34:05.906Z,4.03
2023-09-02T09:36:33.336Z,3.92
2023-09-02T09:39:09.329Z,4.05
2023-09-02T09:41:45.526Z,3.85
2023-09-02T09:44:18.342Z,4.18
2023-09-02T09:46:45.699Z,4.40
2023-09-02T09:49:27.021Z,3.92
2023-09-02T09:52:00.720Z,3.80
2023-09-02T09:54:53.605Z,4.20
2023-09-02T09:57:39.938Z,4.37
2023-09-02T10:00:08.460Z,4.87
2023-09-02T10:02:36.322Z,4.07
2023-09-02T10:05:04.054Z,4.45
2023-09-02T10:07:34.853Z,4.32
2023-09-02T10:10:05.243Z,4.43
2023-09-02T10:12:39.599Z,4.53
2023-09-02T10:15:08.600Z,3.75
2023-09-02T10:20:05.448Z,3.83
2023-09-02T10:22:35.321Z,3.55
2023-09-02T10:25:18.533Z,3.97
2023-09-02T10:27:50.917Z,4.03
2023-09-02T10:30:33.905Z,4.45
2023-09-02T10:33:19.443Z,4.12
2023-09-02T10:35:58.441Z,4.00
2023-09-02T10:38:29.378Z,4.47
2023-09-02T10:41:17.826Z,4.45
2023-09-02T10:43:47.476Z,4.20
2023-09-02T10:46:14.936Z,4.57
2023-09-02T10:48:46.241Z,5.03
2023-09-02T10:51:15.292Z,4.12
2023-09-02T10:53:54.767Z,4.62
2023-09-02T10:56:32.979Z,4.97
2023-09-02T10:59:02.310Z,4.75
2023-09-02T11:01:50.308Z,5.20
2023-09-02T11:04:44.865Z,4.22
2023-09-02T11:07:23.559Z,4.57
2023-09-02T11:09:55.663Z,4.70
2023-09-02T11:12:24.195Z,4.45
2023-09-02T11:15:10.165Z,4.32
2023-09-02T11:17:39.697Z,5.03
2023-09-02T11:20:15.350Z,5.32
2023-09-02T11:23:03.308Z,4.82
2023-09-02T11:25:44.966Z,3.60
2023-09-02T11:28:18.730Z,4.05
2023-09-02T11:31:14.507Z,4.50
2023-09-02T11:33:46.702Z,3.92
2023-09-02T11:36:17.110Z,3.90
2023-09-02T11:38:44.880Z,4.95
2023-09-02T11:41:26.250Z,4.30
2023-09-02T11:43:55.433Z,4.20
2023-09-02T11:46:23.119Z,3.72
2023-09-02T11:48:50.627Z,6.10
2023-09-02T11:51:18.659Z,4.25
2023-09-02T11:53:48.019Z,3.83
2023-09-02T11:56:15.508Z,3.97
2023-09-02T11:58:43.196Z,4.45
2023-09-02T12:01:10.485Z,4.12
2023-09-02T12:03:40.655Z,3.72
2023-09-02T12:06:08.488Z,4.35
2023-09-02T12:08:36.305Z,4.72
2023-09-02T12:11:05.132Z,5.10
2023-09-02T12:13:33.474Z,4.12
2023-09-02T12:16:01.085Z,5.75
2023-09-02T12:18:29.262Z,5.07
2023-09-02T12:20:57.490Z,4.78
2023-09-02T12:26:14.385Z,5.50
2023-09-02T12:28:50.441Z,5.10
2023-09-02T12:31:18.680Z,4.82
2023-09-02T12:33:53.364Z,5.12
2023-09-02T12:36:21.256Z,5.18
2023-09-02T12:38:52.929Z,5.07
2023-09-02T12:41:20.672Z,4.68
2023-09-02T12:43:48.148Z,5.62
2023-09-02T12:46:22.850Z,4.97
2023-09-02T12:48:50.651Z,5.07
2023-09-02T12:51:29.751Z,5.33
2023-09-02T12:53:58.397Z,5.70
2023-09-02T12:56:25.749Z,6.57
2023-09-02T12:58:53.086Z,6.17
2023-09-02T13:01:20.841Z,5.32
2023-09-02T13:03:48.245Z,5.22
2023-09-02T13:06:15.767Z,6.03
2023-09-02T13:08:44.623Z,5.62
2023-09-02T13:11:12.084Z,4.47
2023-09-02T13:13:39.533Z,4.18
2023-09-02T13:16:07.400Z,4.40
2023-09-02T13:18:34.895Z,4.43
2023-09-02T13:21:02.489Z,4.07
2023-09-02T13:23:33.338Z,4.30
2023-09-02T13:26:01.140Z,4.03
2023-09-02T13:28:30.502Z,4.37
2023-09-02T13:30:58.188Z,3.97
2023-09-02T13:33:25.674Z,4.77
2023-09-02T13:35:53.173Z,4.28
2023-09-02T13:38:24.712Z,4.12
2023-09-02T13:40:52.244Z,3.62
2023-09-02T13:43:23.000Z,5.53
2023-09-02T13:45:53.544Z,3.92
2023-09-02T13:48:22.868Z,4.50
2023-09-02T13:50:51.876Z,4.37
2023-09-02T13:53:20.982Z,5.15
2023-09-02T13:55:49.217Z,4.57
2023-09-02T13:58:23.490Z,4.45
2023-09-02T14:00:53.148Z,4.07
2023-09-02T14:03:24.887Z,4.00
2023-09-02T14:05:54.582Z,4.68
2023-09-02T14:08:35.199Z,4.05
2023-09-02T14:11:02.958Z,4.30
2023-09-02T14:13:41.970Z,4.85
2023-09-02T14:16:09.895Z,3.97
2023-09-02T14:18:37.843Z,5.10
2023-09-02T14:21:05.467Z,4.10
2023-09-02T14:23:35.631Z,4.40
2023-09-02T14:26:03.365Z,4.68
2023-09-02T14:28:32.285Z,4.33
2023-09-02T14:30:59.931Z,4.60
2023-09-02T14:33:27.689Z,4.12
2023-09-02T14:35:55.152Z,4.60
2023-09-02T14:38:23.604Z,4.03
2023-09-02T14:40:50.929Z,4.53
2023-09-02T14:43:18.629Z,4.43
2023-09-02T14:45:46.446Z,6.20
2023-09-02T14:48:14.130Z,5.10
2023-09-02T14:50:42.639Z,5.10
2023-09-02T14:53:10.527Z,5.47
2023-09-02T14:55:38.926Z,8.07
2023-09-02T14:58:06.415Z,6.15
2023-09-02T15:00:34.264Z,5.93
2023-09-02T15:03:02.599Z,6.23
2023-09-02T15:05:34.802Z,5.05
2023-09-02T15:08:04.008Z,5.18
2023-09-02T15:10:31.423Z,5.85
2023-09-02T15:13:03.640Z,5.50
2023-09-02T15:15:39.074Z,8.35
2023-09-02T15:18:22.904Z,7.37
2023-09-02T15:20:54.058Z,6.55
2023-09-02T15:23:22.388Z,5.32
2023-09-02T15:25:56.991Z,4.95
2023-09-02T15:28:24.847Z,4.37
2023-09-02T15:30:52.206Z,4.65
2023-09-02T15:33:21.732Z,4.32
2023-09-02T15:35:49.846Z,4.35
2023-09-02T15:38:19.347Z,5.15
2023-09-02T15:40:46.832Z,5.12
2023-09-02T15:43:14.585Z,5.07
2023-09-02T15:45:42.722Z,5.55
2023-09-02T15:50:39.323Z,5.65
2023-09-02T15:53:06.782Z,5.72
2023-09-02T15:55:34.124Z,6.87
2023-09-02T15:58:01.749Z,9.35
2023-09-02T16:00:29.139Z,6.68
2023-09-02T16:02:57.369Z,7.55
2023-09-02T16:05:24.860Z,45.72
2023-09-02T16:07:52.233Z,7.00
2023-09-02T16:10:20.320Z,5.97
2023-09-02T16:12:47.710Z,6.53
2023-09-02T16:15:15.545Z,37.92
2023-09-02T16:20:12.295Z,12.30
2023-09-02T16:22:41.461Z,37.13
2023-09-02T16:25:11.020Z,12.13
2023-09-02T16:27:39.647Z,39.42
2023-09-02T16:30:11.545Z,22.80
2023-09-02T16:32:39.637Z,27.23
2023-09-02T16:35:07.503Z,8.88
2023-09-02T16:37:42.130Z,37.88
2023-09-02T16:40:11.959Z,33.38
2023-09-02T16:42:41.508Z,37.72
2023-09-02T16:45:11.016Z,36.95
2023-09-02T16:47:44.290Z,10.18
2023-09-02T16:50:13.038Z,11.85
2023-09-02T16:52:43.528Z,13.23
2023-09-02T16:55:11.503Z,17.98
2023-09-02T16:57:44.402Z,26.37
2023-09-02T17:00:13.734Z,16.92
2023-09-02T17:02:51.401Z,11.90
2023-09-02T17:05:26.779Z,8.82
2023-09-02T17:07:55.411Z,8.27
2023-09-02T17:10:29.677Z,13.43
2023-09-02T17:12:58.358Z,15.65
2023-09-02T17:15:39.249Z,14.90
2023-09-02T17:18:09.522Z,27.05
2023-09-02T17:20:46.940Z,19.52
2023-09-02T17:23:16.361Z,17.73
2023-09-02T17:25:46.437Z,9.77
2023-09-02T17:28:20.790Z,9.07
2023-09-02T17:30:53.970Z,7.05
2023-09-02T17:33:21.408Z,6.90
2023-09-02T17:35:48.747Z,7.87
2023-09-02T17:38:16.450Z,6.93
2023-09-02T17:40:43.861Z,6.90
2023-09-02T17:43:11.240Z,6.47
2023-09-02T17:45:39.015Z,7.23
2023-09-02T17:48:06.687Z,6.72
2023-09-02T17:50:34.052Z,6.43
2023-09-02T17:53:02.200Z,7.03
2023-09-02T17:57:56.822Z,8.48
2023-09-02T18:00:24.644Z,8.80
2023-09-02T18:02:52.524Z,8.93
2023-09-02T18:05:20.026Z,7.43
2023-09-02T18:07:47.358Z,8.52
2023-09-02T18:10:15.189Z,8.20
2023-09-02T18:12:42.632Z,8.35
2023-09-02T18:15:10.916Z,8.02
2023-09-02T18:20:07.995Z,8.38
2023-09-02T18:22:35.653Z,7.93
2023-09-02T18:25:03.604Z,7.43
2023-09-02T18:27:31.434Z,7.50
2023-09-02T18:29:58.958Z,6.57
2023-09-02T18:32:26.749Z,7.50
2023-09-02T18:34:54.382Z,7.20
2023-09-02T18:37:21.735Z,9.07
2023-09-02T18:39:50.642Z,7.40
2023-09-02T18:44:45.560Z,7.37
2023-09-02T18:47:14.118Z,8.37
2023-09-02T18:49:41.566Z,7.32
2023-09-02T18:52:08.924Z,7.82
2023-09-02T18:54:36.576Z,8.33
2023-09-02T18:57:04.290Z,7.40
2023-09-02T18:59:33.440Z,7.80
2023-09-02T19:02:01.186Z,8.00
2023-09-02T19:04:28.560Z,7.45
2023-09-02T19:06:55.929Z,7.85
2023-09-02T19:09:23.723Z,7.45
2023-09-02T19:11:51.108Z,7.85
2023-09-02T19:14:18.884Z,7.57
2023-09-02T19:16:46.581Z,7.47
2023-09-02T19:19:14.055Z,8.18
2023-09-02T19:21:41.982Z,8.07
2023-09-02T19:24:09.678Z,7.22
2023-09-02T19:26:37.101Z,8.00
2023-09-02T19:29:04.741Z,8.25
2023-09-02T19:31:32.586Z,7.72
2023-09-02T19:33:59.851Z,8.40
2023-09-02T19:36:30.870Z,7.85
2023-09-02T19:38:59.437Z,7.03
2023-09-02T19:41:26.834Z,7.03
2023-09-02T19:43:54.154Z,7.37
2023-09-02T19:46:22.143Z,7.65
2023-09-02T19:48:49.536Z,7.37
2023-09-02T19:51:17.041Z,7.78
2023-09-02T19:53:44.949Z,7.12
2023-09-02T19:56:13.211Z,8.15
2023-09-02T19:58:49.900Z,8.18
2023-09-02T20:01:27.651Z,8.70
2023-09-02T20:03:55.786Z,8.13
2023-09-02T20:06:23.242Z,8.30
2023-09-02T20:08:50.614Z,7.87
2023-09-02T20:11:18.309Z,7.80
2023-09-02T20:13:45.732Z,7.30
2023-09-02T20:16:13.247Z,8.10
2023-09-02T20:18:41.596Z,8.00
2023-09-02T20:21:12.584Z,7.80
2023-09-02T20:23:39.936Z,7.70
2023-09-02T20:26:17.869Z,8.35
2023-09-02T20:28:45.219Z,8.63
2023-09-02T20:31:17.572Z,7.82
2023-09-02T20:33:50.362Z,6.72
2023-09-02T20:36:19.866Z,8.40
2023-09-02T20:38:47.752Z,9.30
2023-09-02T20:41:16.194Z,8.90
2023-09-02T20:46:14.853Z,8.10
2023-09-02T20:48:43.038Z,7.57
2023-09-02T20:51:12.246Z,7.50
2023-09-02T20:53:41.860Z,8.40
2023-09-02T20:56:12.071Z,8.38
2023-09-02T20:58:40.669Z,7.12
2023-09-02T21:01:08.889Z,7.97
2023-09-02T21:03:37.192Z,7.50
2023-09-02T21:06:08.988Z,8.00
2023-09-02T21:08:36.705Z,8.63
2023-09-02T21:11:10.652Z,7.32
2023-09-02T21:13:40.497Z,8.40
2023-09-02T21:16:16.899Z,7.90
2023-09-02T21:18:45.041Z,8.20
2023-09-02T21:21:23.969Z,8.90
2023-09-02T21:23:51.939Z,8.75
2023-09-02T21:26:19.333Z,8.60
2023-09-02T21:28:52.329Z,8.73
2023-09-02T21:31:20.445Z,9.18
2023-09-02T21:33:51.284Z,8.90
2023-09-02T21:36:19.780Z,8.77
2023-09-02T21:38:49.523Z,8.65
2023-09-02T21:41:17.053Z,9.00
2023-09-02T21:43:44.596Z,7.97
2023-09-02T21:46:13.524Z,8.23
2023-09-02T21:48:41.273Z,8.07
2023-09-02T21:51:11.968Z,7.57
2023-09-02T21:53:41.029Z,8.30
2023-09-02T21:56:08.584Z,8.20
2023-09-02T21:58:35.930Z,8.68
2023-09-02T22:01:07.709Z,8.90
2023-09-02T22:03:36.650Z,8.27
2023-09-02T22:06:06.802Z,8.00
2023-09-02T22:08:34.762Z,7.72
2023-09-02T22:11:02.474Z,8.25
2023-09-02T22:13:30.175Z,8.52
2023-09-02T22:15:58.013Z,7.93
2023-09-02T22:18:26.705Z,9.00
2023-09-02T22:20:58.578Z,8.18
2023-09-02T22:23:29.085Z,8.55
2023-09-02T22:26:05.387Z,8.40
2023-09-02T22:28:37.551Z,8.30
2023-09-02T22:31:06.035Z,8.90
2023-09-02T22:36:02.506Z,8.40
2023-09-02T22:38:54.662Z,8.00
2023-09-02T22:41:22.658Z,8.75
2023-09-02T22:43:50.029Z,7.77
2023-09-02T22:46:17.544Z,8.52
2023-09-02T22:48:45.366Z,8.23
2023-09-02T22:51:12.723Z,8.57
2023-09-02T22:53:41.431Z,8.75
2023-09-02T22:56:13.792Z,8.52
2023-09-02T22:58:41.237Z,8.45
2023-09-02T23:01:14.104Z,7.95
2023-09-02T23:03:45.454Z,8.57
2023-09-02T23:06:14.176Z,7.57
2023-09-02T23:08:46.224Z,7.55
2023-09-02T23:11:14.060Z,8.15
2023-09-02T23:13:43.721Z,8.25
2023-09-02T23:16:11.148Z,8.50
2023-09-02T23:18:39.019Z,8.00
2023-09-02T23:21:14.179Z,9.00
2023-09-02T23:23:42.100Z,8.43
2023-09-02T23:26:10.040Z,7.87
2023-09-02T23:28:37.893Z,8.33
2023-09-02T23:31:06.036Z,8.73
2023-09-02T23:33:33.878Z,8.77
2023-09-02T23:36:04.290Z,8.23
2023-09-02T23:38:32.459Z,9.10
2023-09-02T23:40:59.900Z,8.23
2023-09-02T23:43:27.265Z,8.53
2023-09-02T23:45:55.157Z,8.97
2023-09-02T23:48:22.861Z,8.33
2023-09-02T23:50:51.803Z,7.73
2023-09-02T23:53:19.560Z,8.93
2023-09-02T23:55:48.382Z,7.87
2023-09-02T23:58:16.155Z,9.07
